sensor_id;sensor_type;location;lat;lon;timestamp;P1;durP1;ratioP1;P2;durP2;ratioP2
75937;SDS011;64615;32.062;34.834;2024-03-22T00:01:48;6.28;;;1.58;;
75937;SDS011;64615;32.062;34.834;2024-03-22T00:04:15;6.88;;;1.63;;
75937;SDS011;64615;32.062;34.834;2024-03-22T00:06:42;6.13;;;1.73;;
75937;SDS011;64615;32.062;34.834;2024-03-22T00:09:09;4.45;;;1.42;;
75937;SDS011;64615;32.062;34.834;2024-03-22T00:11:35;6.13;;;1.55;;
75937;SDS011;64615;32.062;34.834;2024-03-22T00:14:01;4.93;;;1.50;;
75937;SDS011;64615;32.062;34.834;2024-03-22T00:16:27;6.72;;;1.75;;
75937;SDS011;64615;32.062;34.834;2024-03-22T00:18:53;6.53;;;1.67;;
75937;SDS011;64615;32.062;34.834;2024-03-22T00:21:18;8.50;;;2.03;;
75937;SDS011;64615;32.062;34.834;2024-03-22T00:23:45;7.82;;;2.00;;
75937;SDS011;64615;32.062;34.834;2024-03-22T00:26:11;8.30;;;1.95;;
75937;SDS011;64615;32.062;34.834;2024-03-22T00:28:36;5.43;;;1.60;;
75937;SDS011;64615;32.062;34.834;2024-03-22T00:31:02;5.68;;;1.50;;
75937;SDS011;64615;32.062;34.834;2024-03-22T00:33:28;7.95;;;1.77;;
75937;SDS011;64615;32.062;34.834;2024-03-22T00:35:53;8.10;;;2.15;;
75937;SDS011;64615;32.062;34.834;2024-03-22T00:38:19;7.53;;;1.60;;
75937;SDS011;64615;32.062;34.834;2024-03-22T00:40:45;9.43;;;2.08;;
75937;SDS011;64615;32.062;34.834;2024-03-22T00:43:10;7.07;;;1.77;;
75937;SDS011;64615;32.062;34.834;2024-03-22T00:45:36;9.48;;;1.80;;
75937;SDS011;64615;32.062;34.834;2024-03-22T00:48:01;5.25;;;1.48;;
75937;SDS011;64615;32.062;34.834;2024-03-22T00:50:27;7.35;;;1.77;;
75937;SDS011;64615;32.062;34.834;2024-03-22T00:52:54;4.47;;;1.70;;
75937;SDS011;64615;32.062;34.834;2024-03-22T00:55:22;6.97;;;1.60;;
75937;SDS011;64615;32.062;34.834;2024-03-22T00:57:48;8.95;;;1.65;;
75937;SDS011;64615;32.062;34.834;2024-03-22T01:00:14;7.93;;;1.80;;
75937;SDS011;64615;32.062;34.834;2024-03-22T01:02:40;5.43;;;1.60;;
75937;SDS011;64615;32.062;34.834;2024-03-22T01:05:06;6.50;;;1.58;;
75937;SDS011;64615;32.062;34.834;2024-03-22T01:07:32;7.43;;;1.73;;
75937;SDS011;64615;32.062;34.834;2024-03-22T01:09:58;6.10;;;1.70;;
75937;SDS011;64615;32.062;34.834;2024-03-22T01:12:25;11.38;;;1.85;;
75937;SDS011;64615;32.062;34.834;2024-03-22T01:14:51;7.57;;;1.67;;
75937;SDS011;64615;32.062;34.834;2024-03-22T01:17:16;7.72;;;1.70;;
75937;SDS011;64615;32.062;34.834;2024-03-22T01:19:42;5.80;;;1.50;;
75937;SDS011;64615;32.062;34.834;2024-03-22T01:22:07;6.05;;;1.50;;
75937;SDS011;64615;32.062;34.834;2024-03-22T01:24:33;5.93;;;1.67;;
75937;SDS011;64615;32.062;34.834;2024-03-22T01:26:59;4.93;;;1.27;;
75937;SDS011;64615;32.062;34.834;2024-03-22T01:29:24;6.28;;;1.65;;
75937;SDS011;64615;32.062;34.834;2024-03-22T01:31:50;5.22;;;1.30;;
75937;SDS011;64615;32.062;34.834;2024-03-22T01:34:16;4.95;;;1.50;;
75937;SDS011;64615;32.062;34.834;2024-03-22T01:36:41;5.80;;;1.50;;
75937;SDS011;64615;32.062;34.834;2024-03-22T01:39:07;6.88;;;1.70;;
75937;SDS011;64615;32.062;34.834;2024-03-22T01:41:33;5.43;;;1.63;;
75937;SDS011;64615;32.062;34.834;2024-03-22T01:43:58;6.65;;;1.80;;
75937;SDS011;64615;32.062;34.834;2024-03-22T01:46:24;6.28;;;1.48;;
75937;SDS011;64615;32.062;34.834;2024-03-22T01:48:50;7.95;;;1.75;;
75937;SDS011;64615;32.062;34.834;2024-03-22T01:51:16;6.22;;;1.30;;
75937;SDS011;64615;32.062;34.834;2024-03-22T01:53:43;4.88;;;1.48;;
75937;SDS011;64615;32.062;34.834;2024-03-22T01:56:09;5.00;;;1.52;;
75937;SDS011;64615;32.062;34.834;2024-03-22T01:58:36;8.32;;;2.05;;
75937;SDS011;64615;32.062;34.834;2024-03-22T02:01:02;6.70;;;1.58;;
75937;SDS011;64615;32.062;34.834;2024-03-22T02:03:27;8.07;;;1.48;;
75937;SDS011;64615;32.062;34.834;2024-03-22T02:05:55;7.63;;;1.55;;
75937;SDS011;64615;32.062;34.834;2024-03-22T02:08:21;4.57;;;1.20;;
75937;SDS011;64615;32.062;34.834;2024-03-22T02:10:47;6.07;;;1.55;;
75937;SDS011;64615;32.062;34.834;2024-03-22T02:13:12;5.32;;;1.60;;
75937;SDS011;64615;32.062;34.834;2024-03-22T02:15:38;6.63;;;1.60;;
75937;SDS011;64615;32.062;34.834;2024-03-22T02:18:04;6.82;;;1.60;;
75937;SDS011;64615;32.062;34.834;2024-03-22T02:20:29;7.72;;;1.80;;
75937;SDS011;64615;32.062;34.834;2024-03-22T02:22:55;11.50;;;1.70;;
75937;SDS011;64615;32.062;34.834;2024-03-22T02:25:21;5.32;;;1.33;;
75937;SDS011;64615;32.062;34.834;2024-03-22T02:27:46;6.63;;;1.40;;
75937;SDS011;64615;32.062;34.834;2024-03-22T02:30:15;7.38;;;1.80;;
75937;SDS011;64615;32.062;34.834;2024-03-22T02:32:42;5.60;;;1.58;;
75937;SDS011;64615;32.062;34.834;2024-03-22T02:35:07;5.25;;;1.30;;
75937;SDS011;64615;32.062;34.834;2024-03-22T02:37:33;5.38;;;1.48;;
75937;SDS011;64615;32.062;34.834;2024-03-22T02:39:59;5.35;;;1.88;;
75937;SDS011;64615;32.062;34.834;2024-03-22T02:42:24;6.22;;;1.40;;
75937;SDS011;64615;32.062;34.834;2024-03-22T02:44:50;7.22;;;1.58;;
75937;SDS011;64615;32.062;34.834;2024-03-22T02:47:16;7.25;;;1.75;;
75937;SDS011;64615;32.062;34.834;2024-03-22T02:49:41;6.00;;;1.55;;
75937;SDS011;64615;32.062;34.834;2024-03-22T02:52:07;7.13;;;1.40;;
75937;SDS011;64615;32.062;34.834;2024-03-22T02:54:33;6.63;;;1.23;;
75937;SDS011;64615;32.062;34.834;2024-03-22T02:56:58;5.95;;;1.30;;
75937;SDS011;64615;32.062;34.834;2024-03-22T02:59:27;4.80;;;1.58;;
75937;SDS011;64615;32.062;34.834;2024-03-22T03:01:53;4.72;;;1.30;;
75937;SDS011;64615;32.062;34.834;2024-03-22T03:04:19;3.92;;;1.33;;
75937;SDS011;64615;32.062;34.834;2024-03-22T03:06:45;4.22;;;1.38;;
75937;SDS011;64615;32.062;34.834;2024-03-22T03:09:11;6.13;;;1.45;;
75937;SDS011;64615;32.062;34.834;2024-03-22T03:11:40;5.80;;;1.52;;
75937;SDS011;64615;32.062;34.834;2024-03-22T03:14:06;3.60;;;1.23;;
75937;SDS011;64615;32.062;34.834;2024-03-22T03:16:32;4.88;;;1.40;;
75937;SDS011;64615;32.062;34.834;2024-03-22T03:18:57;5.50;;;1.45;;
75937;SDS011;64615;32.062;34.834;2024-03-22T03:21:23;7.32;;;1.50;;
75937;SDS011;64615;32.062;34.834;2024-03-22T03:23:49;10.18;;;1.88;;
75937;SDS011;64615;32.062;34.834;2024-03-22T03:26:14;6.47;;;1.40;;
75937;SDS011;64615;32.062;34.834;2024-03-22T03:28:40;6.57;;;1.20;;
75937;SDS011;64615;32.062;34.834;2024-03-22T03:31:05;5.85;;;1.50;;
75937;SDS011;64615;32.062;34.834;2024-03-22T03:33:31;6.35;;;1.48;;
75937;SDS011;64615;32.062;34.834;2024-03-22T03:35:57;5.38;;;1.50;;
75937;SDS011;64615;32.062;34.834;2024-03-22T03:38:22;5.85;;;1.40;;
75937;SDS011;64615;32.062;34.834;2024-03-22T03:40:48;8.50;;;1.40;;
75937;SDS011;64615;32.062;34.834;2024-03-22T03:43:13;9.90;;;1.85;;
75937;SDS011;64615;32.062;34.834;2024-03-22T03:45:39;11.80;;;1.92;;
75937;SDS011;64615;32.062;34.834;2024-03-22T03:48:05;15.73;;;2.30;;
75937;SDS011;64615;32.062;34.834;2024-03-22T03:50:31;40.55;;;3.63;;
75937;SDS011;64615;32.062;34.834;2024-03-22T03:52:56;15.77;;;2.15;;
75937;SDS011;64615;32.062;34.834;2024-03-22T03:55:22;13.00;;;2.20;;
75937;SDS011;64615;32.062;34.834;2024-03-22T03:57:49;21.05;;;2.45;;
75937;SDS011;64615;32.062;34.834;2024-03-22T04:00:16;27.20;;;2.88;;
75937;SDS011;64615;32.062;34.834;2024-03-22T04:02:43;30.80;;;3.22;;
75937;SDS011;64615;32.062;34.834;2024-03-22T04:05:08;14.48;;;2.00;;
75937;SDS011;64615;32.062;34.834;2024-03-22T04:07:34;29.55;;;3.17;;
75937;SDS011;64615;32.062;34.834;2024-03-22T04:09:59;19.85;;;2.90;;
75937;SDS011;64615;32.062;34.834;2024-03-22T04:12:25;37.00;;;2.60;;
75937;SDS011;64615;32.062;34.834;2024-03-22T04:14:52;38.13;;;2.78;;
75937;SDS011;64615;32.062;34.834;2024-03-22T04:17:18;51.20;;;3.45;;
75937;SDS011;64615;32.062;34.834;2024-03-22T04:19:43;32.28;;;3.47;;
75937;SDS011;64615;32.062;34.834;2024-03-22T04:22:09;21.15;;;2.92;;
75937;SDS011;64615;32.062;34.834;2024-03-22T04:24:34;24.98;;;2.88;;
75937;SDS011;64615;32.062;34.834;2024-03-22T04:27:00;22.48;;;2.55;;
75937;SDS011;64615;32.062;34.834;2024-03-22T04:29:26;20.73;;;3.33;;
75937;SDS011;64615;32.062;34.834;2024-03-22T04:31:51;15.38;;;2.47;;
75937;SDS011;64615;32.062;34.834;2024-03-22T04:34:17;17.90;;;2.92;;
75937;SDS011;64615;32.062;34.834;2024-03-22T04:36:42;29.08;;;2.42;;
75937;SDS011;64615;32.062;34.834;2024-03-22T04:39:08;18.92;;;2.55;;
75937;SDS011;64615;32.062;34.834;2024-03-22T04:41:35;20.17;;;2.40;;
75937;SDS011;64615;32.062;34.834;2024-03-22T04:44:00;24.33;;;3.08;;
75937;SDS011;64615;32.062;34.834;2024-03-22T04:46:27;16.45;;;2.33;;
75937;SDS011;64615;32.062;34.834;2024-03-22T04:48:52;26.08;;;2.47;;
75937;SDS011;64615;32.062;34.834;2024-03-22T04:51:18;19.33;;;2.15;;
75937;SDS011;64615;32.062;34.834;2024-03-22T04:53:43;18.80;;;2.65;;
75937;SDS011;64615;32.062;34.834;2024-03-22T04:56:09;9.38;;;1.92;;
75937;SDS011;64615;32.062;34.834;2024-03-22T04:58:35;15.88;;;2.60;;
75937;SDS011;64615;32.062;34.834;2024-03-22T05:01:00;22.58;;;2.78;;
75937;SDS011;64615;32.062;34.834;2024-03-22T05:03:26;19.80;;;2.85;;
75937;SDS011;64615;32.062;34.834;2024-03-22T05:05:52;16.40;;;2.67;;
75937;SDS011;64615;32.062;34.834;2024-03-22T05:08:18;13.38;;;2.17;;
75937;SDS011;64615;32.062;34.834;2024-03-22T05:10:44;13.32;;;1.88;;
75937;SDS011;64615;32.062;34.834;2024-03-22T05:13:10;18.15;;;2.25;;
75937;SDS011;64615;32.062;34.834;2024-03-22T05:15:35;15.10;;;2.20;;
75937;SDS011;64615;32.062;34.834;2024-03-22T05:18:01;15.80;;;2.10;;
75937;SDS011;64615;32.062;34.834;2024-03-22T05:20:27;12.43;;;1.77;;
75937;SDS011;64615;32.062;34.834;2024-03-22T05:22:52;12.43;;;1.98;;
75937;SDS011;64615;32.062;34.834;2024-03-22T05:25:18;10.68;;;1.65;;
75937;SDS011;64615;32.062;34.834;2024-03-22T05:27:44;11.70;;;2.00;;
75937;SDS011;64615;32.062;34.834;2024-03-22T05:30:11;10.88;;;1.88;;
75937;SDS011;64615;32.062;34.834;2024-03-22T05:32:38;9.70;;;1.80;;
75937;SDS011;64615;32.062;34.834;2024-03-22T05:35:04;7.55;;;1.52;;
75937;SDS011;64615;32.062;34.834;2024-03-22T05:37:30;10.95;;;1.75;;
75937;SDS011;64615;32.062;34.834;2024-03-22T05:39:56;13.85;;;1.70;;
75937;SDS011;64615;32.062;34.834;2024-03-22T05:42:21;7.95;;;1.77;;
75937;SDS011;64615;32.062;34.834;2024-03-22T05:44:47;8.05;;;1.92;;
75937;SDS011;64615;32.062;34.834;2024-03-22T05:47:13;8.13;;;1.92;;
75937;SDS011;64615;32.062;34.834;2024-03-22T05:49:39;10.93;;;1.85;;
75937;SDS011;64615;32.062;34.834;2024-03-22T05:52:04;5.10;;;1.55;;
75937;SDS011;64615;32.062;34.834;2024-03-22T05:54:30;6.53;;;1.63;;
75937;SDS011;64615;32.062;34.834;2024-03-22T05:56:56;8.07;;;1.70;;
75937;SDS011;64615;32.062;34.834;2024-03-22T05:59:21;8.38;;;1.73;;
75937;SDS011;64615;32.062;34.834;2024-03-22T06:01:47;8.10;;;1.77;;
75937;SDS011;64615;32.062;34.834;2024-03-22T06:04:13;12.68;;;1.73;;
75937;SDS011;64615;32.062;34.834;2024-03-22T06:06:38;15.07;;;2.15;;
75937;SDS011;64615;32.062;34.834;2024-03-22T06:09:04;13.52;;;1.73;;
75937;SDS011;64615;32.062;34.834;2024-03-22T06:11:36;11.63;;;1.67;;
75937;SDS011;64615;32.062;34.834;2024-03-22T06:14:02;13.57;;;1.92;;
75937;SDS011;64615;32.062;34.834;2024-03-22T06:16:27;25.50;;;2.28;;
75937;SDS011;64615;32.062;34.834;2024-03-22T06:18:53;11.98;;;1.83;;
75937;SDS011;64615;32.062;34.834;2024-03-22T06:21:19;17.13;;;2.38;;
75937;SDS011;64615;32.062;34.834;2024-03-22T06:23:49;10.55;;;2.15;;
75937;SDS011;64615;32.062;34.834;2024-03-22T06:26:15;11.10;;;1.92;;
75937;SDS011;64615;32.062;34.834;2024-03-22T06:28:41;9.85;;;2.17;;
75937;SDS011;64615;32.062;34.834;2024-03-22T06:31:07;13.77;;;2.17;;
75937;SDS011;64615;32.062;34.834;2024-03-22T06:33:33;9.25;;;1.92;;
75937;SDS011;64615;32.062;34.834;2024-03-22T06:35:58;7.03;;;1.77;;
75937;SDS011;64615;32.062;34.834;2024-03-22T06:38:25;10.48;;;1.80;;
75937;SDS011;64615;32.062;34.834;2024-03-22T06:40:50;10.52;;;2.10;;
75937;SDS011;64615;32.062;34.834;2024-03-22T06:43:16;7.68;;;1.80;;
75937;SDS011;64615;32.062;34.834;2024-03-22T06:45:42;7.00;;;2.05;;
75937;SDS011;64615;32.062;34.834;2024-03-22T06:48:07;10.52;;;1.95;;
75937;SDS011;64615;32.062;34.834;2024-03-22T06:50:33;9.57;;;1.95;;
75937;SDS011;64615;32.062;34.834;2024-03-22T06:52:58;14.57;;;2.25;;
75937;SDS011;64615;32.062;34.834;2024-03-22T06:55:24;12.90;;;2.58;;
75937;SDS011;64615;32.062;34.834;2024-03-22T06:57:50;13.88;;;2.30;;
75937;SDS011;64615;32.062;34.834;2024-03-22T07:00:17;11.73;;;2.45;;
75937;SDS011;64615;32.062;34.834;2024-03-22T07:02:43;7.28;;;2.08;;
75937;SDS011;64615;32.062;34.834;2024-03-22T07:05:09;8.23;;;2.05;;
75937;SDS011;64615;32.062;34.834;2024-03-22T07:07:35;11.70;;;2.13;;
75937;SDS011;64615;32.062;34.834;2024-03-22T07:10:02;8.13;;;1.80;;
75937;SDS011;64615;32.062;34.834;2024-03-22T07:12:30;13.63;;;2.45;;
75937;SDS011;64615;32.062;34.834;2024-03-22T07:14:57;10.18;;;2.00;;
75937;SDS011;64615;32.062;34.834;2024-03-22T07:17:23;7.28;;;1.80;;
75937;SDS011;64615;32.062;34.834;2024-03-22T07:19:52;7.38;;;1.80;;
75937;SDS011;64615;32.062;34.834;2024-03-22T07:22:19;5.00;;;1.55;;
75937;SDS011;64615;32.062;34.834;2024-03-22T07:24:45;10.75;;;1.63;;
75937;SDS011;64615;32.062;34.834;2024-03-22T07:27:12;9.20;;;2.05;;
75937;SDS011;64615;32.062;34.834;2024-03-22T07:29:39;7.40;;;1.95;;
75937;SDS011;64615;32.062;34.834;2024-03-22T07:32:05;6.22;;;1.70;;
75937;SDS011;64615;32.062;34.834;2024-03-22T07:34:31;7.05;;;1.70;;
75937;SDS011;64615;32.062;34.834;2024-03-22T07:36:56;9.45;;;1.83;;
75937;SDS011;64615;32.062;34.834;2024-03-22T07:39:22;6.80;;;1.80;;
75937;SDS011;64615;32.062;34.834;2024-03-22T07:41:49;8.20;;;1.85;;
75937;SDS011;64615;32.062;34.834;2024-03-22T07:44:15;5.88;;;1.73;;
75937;SDS011;64615;32.062;34.834;2024-03-22T07:46:43;5.82;;;1.70;;
75937;SDS011;64615;32.062;34.834;2024-03-22T07:49:09;8.98;;;1.83;;
75937;SDS011;64615;32.062;34.834;2024-03-22T07:51:35;7.97;;;2.00;;
75937;SDS011;64615;32.062;34.834;2024-03-22T07:54:00;8.43;;;1.70;;
75937;SDS011;64615;32.062;34.834;2024-03-22T07:56:27;6.22;;;1.50;;
75937;SDS011;64615;32.062;34.834;2024-03-22T07:58:53;8.70;;;1.80;;
75937;SDS011;64615;32.062;34.834;2024-03-22T08:01:19;6.97;;;1.63;;
75937;SDS011;64615;32.062;34.834;2024-03-22T08:03:44;6.38;;;1.50;;
75937;SDS011;64615;32.062;34.834;2024-03-22T08:06:10;5.57;;;1.65;;
75937;SDS011;64615;32.062;34.834;2024-03-22T08:08:36;6.72;;;1.80;;
75937;SDS011;64615;32.062;34.834;2024-03-22T08:11:01;6.72;;;1.65;;
75937;SDS011;64615;32.062;34.834;2024-03-22T08:13:27;7.38;;;1.52;;
75937;SDS011;64615;32.062;34.834;2024-03-22T08:15:52;9.70;;;1.80;;
75937;SDS011;64615;32.062;34.834;2024-03-22T08:18:18;7.40;;;1.90;;
75937;SDS011;64615;32.062;34.834;2024-03-22T08:20:44;7.35;;;1.60;;
75937;SDS011;64615;32.062;34.834;2024-03-22T08:23:10;6.13;;;1.70;;
75937;SDS011;64615;32.062;34.834;2024-03-22T08:25:35;8.88;;;1.95;;
75937;SDS011;64615;32.062;34.834;2024-03-22T08:28:02;7.78;;;1.60;;
75937;SDS011;64615;32.062;34.834;2024-03-22T08:30:28;7.68;;;2.13;;
75937;SDS011;64615;32.062;34.834;2024-03-22T08:32:53;6.43;;;1.83;;
75937;SDS011;64615;32.062;34.834;2024-03-22T08:35:19;9.05;;;1.90;;
75937;SDS011;64615;32.062;34.834;2024-03-22T08:37:45;8.15;;;1.83;;
75937;SDS011;64615;32.062;34.834;2024-03-22T08:40:11;9.43;;;1.70;;
75937;SDS011;64615;32.062;34.834;2024-03-22T08:42:37;6.80;;;1.80;;
75937;SDS011;64615;32.062;34.834;2024-03-22T08:45:04;7.53;;;1.92;;
75937;SDS011;64615;32.062;34.834;2024-03-22T08:47:30;6.88;;;1.83;;
75937;SDS011;64615;32.062;34.834;2024-03-22T08:49:56;9.75;;;2.13;;
75937;SDS011;64615;32.062;34.834;2024-03-22T08:52:23;5.22;;;1.40;;
75937;SDS011;64615;32.062;34.834;2024-03-22T08:54:49;7.18;;;1.80;;
75937;SDS011;64615;32.062;34.834;2024-03-22T08:57:18;6.03;;;1.80;;
75937;SDS011;64615;32.062;34.834;2024-03-22T08:59:44;6.45;;;2.00;;
75937;SDS011;64615;32.062;34.834;2024-03-22T09:02:10;7.35;;;1.92;;
75937;SDS011;64615;32.062;34.834;2024-03-22T09:04:36;7.20;;;1.83;;
75937;SDS011;64615;32.062;34.834;2024-03-22T09:07:02;7.03;;;1.88;;
75937;SDS011;64615;32.062;34.834;2024-03-22T09:09:28;6.82;;;1.77;;
75937;SDS011;64615;32.062;34.834;2024-03-22T09:11:54;10.52;;;1.95;;
75937;SDS011;64615;32.062;34.834;2024-03-22T09:14:19;6.38;;;2.00;;
75937;SDS011;64615;32.062;34.834;2024-03-22T09:16:45;9.98;;;2.10;;
75937;SDS011;64615;32.062;34.834;2024-03-22T09:19:11;6.82;;;1.60;;
75937;SDS011;64615;32.062;34.834;2024-03-22T09:21:36;7.10;;;2.00;;
75937;SDS011;64615;32.062;34.834;2024-03-22T09:24:02;6.85;;;2.00;;
75937;SDS011;64615;32.062;34.834;2024-03-22T09:28:57;7.32;;;1.60;;
75937;SDS011;64615;32.062;34.834;2024-03-22T09:31:22;4.97;;;1.63;;
75937;SDS011;64615;32.062;34.834;2024-03-22T09:33:48;6.97;;;1.48;;
75937;SDS011;64615;32.062;34.834;2024-03-22T09:36:13;9.63;;;2.00;;
75937;SDS011;64615;32.062;34.834;2024-03-22T09:38:39;7.40;;;1.80;;
75937;SDS011;64615;32.062;34.834;2024-03-22T09:41:05;6.45;;;1.70;;
75937;SDS011;64615;32.062;34.834;2024-03-22T09:43:30;6.13;;;1.65;;
75937;SDS011;64615;32.062;34.834;2024-03-22T09:45:59;5.55;;;1.67;;
75937;SDS011;64615;32.062;34.834;2024-03-22T09:48:25;7.45;;;1.55;;
75937;SDS011;64615;32.062;34.834;2024-03-22T09:50:55;6.32;;;1.80;;
75937;SDS011;64615;32.062;34.834;2024-03-22T09:53:21;6.82;;;1.60;;
75937;SDS011;64615;32.062;34.834;2024-03-22T09:55:51;8.00;;;1.98;;
75937;SDS011;64615;32.062;34.834;2024-03-22T09:58:22;5.82;;;1.70;;
75937;SDS011;64615;32.062;34.834;2024-03-22T10:00:48;7.25;;;1.80;;
75937;SDS011;64615;32.062;34.834;2024-03-22T10:03:14;4.32;;;1.55;;
75937;SDS011;64615;32.062;34.834;2024-03-22T10:05:40;5.85;;;1.85;;
75937;SDS011;64615;32.062;34.834;2024-03-22T10:08:06;5.18;;;1.50;;
75937;SDS011;64615;32.062;34.834;2024-03-22T10:10:32;7.30;;;1.90;;
75937;SDS011;64615;32.062;34.834;2024-03-22T10:13:02;8.77;;;1.90;;
75937;SDS011;64615;32.062;34.834;2024-03-22T10:15:30;8.15;;;1.88;;
75937;SDS011;64615;32.062;34.834;2024-03-22T10:17:58;7.28;;;1.58;;
75937;SDS011;64615;32.062;34.834;2024-03-22T10:20:24;6.88;;;1.73;;
75937;SDS011;64615;32.062;34.834;2024-03-22T10:22:57;6.68;;;1.73;;
75937;SDS011;64615;32.062;34.834;2024-03-22T10:25:28;7.82;;;1.80;;
75937;SDS011;64615;32.062;34.834;2024-03-22T10:27:54;9.10;;;1.70;;
75937;SDS011;64615;32.062;34.834;2024-03-22T10:30:21;6.00;;;1.70;;
75937;SDS011;64615;32.062;34.834;2024-03-22T10:32:48;5.13;;;1.50;;
75937;SDS011;64615;32.062;34.834;2024-03-22T10:35:14;7.88;;;1.77;;
75937;SDS011;64615;32.062;34.834;2024-03-22T10:37:40;12.55;;;1.70;;
75937;SDS011;64615;32.062;34.834;2024-03-22T10:40:07;12.85;;;1.88;;
75937;SDS011;64615;32.062;34.834;2024-03-22T10:42:37;11.27;;;1.80;;
75937;SDS011;64615;32.062;34.834;2024-03-22T10:45:07;19.88;;;2.53;;
75937;SDS011;64615;32.062;34.834;2024-03-22T10:47:34;23.45;;;2.17;;
75937;SDS011;64615;32.062;34.834;2024-03-22T10:50:05;32.50;;;2.80;;
75937;SDS011;64615;32.062;34.834;2024-03-22T10:52:45;24.23;;;3.05;;
75937;SDS011;64615;32.062;34.834;2024-03-22T10:55:19;22.20;;;3.10;;
75937;SDS011;64615;32.062;34.834;2024-03-22T10:57:56;18.80;;;2.47;;
75937;SDS011;64615;32.062;34.834;2024-03-22T11:00:29;15.27;;;2.35;;
75937;SDS011;64615;32.062;34.834;2024-03-22T11:02:56;22.05;;;2.47;;
75937;SDS011;64615;32.062;34.834;2024-03-22T11:05:22;12.38;;;1.75;;
75937;SDS011;64615;32.062;34.834;2024-03-22T11:07:58;17.67;;;2.65;;
75937;SDS011;64615;32.062;34.834;2024-03-22T11:10:33;15.50;;;2.20;;
75937;SDS011;64615;32.062;34.834;2024-03-22T11:13:06;15.95;;;2.42;;
75937;SDS011;64615;32.062;34.834;2024-03-22T11:18:00;14.73;;;2.20;;
75937;SDS011;64615;32.062;34.834;2024-03-22T11:20:26;9.98;;;1.70;;
75937;SDS011;64615;32.062;34.834;2024-03-22T11:22:52;13.93;;;2.10;;
75937;SDS011;64615;32.062;34.834;2024-03-22T11:25:18;11.98;;;2.05;;
75937;SDS011;64615;32.062;34.834;2024-03-22T11:27:45;11.13;;;2.00;;
75937;SDS011;64615;32.062;34.834;2024-03-22T11:30:11;12.75;;;2.72;;
75937;SDS011;64615;32.062;34.834;2024-03-22T11:32:38;10.73;;;1.75;;
75937;SDS011;64615;32.062;34.834;2024-03-22T11:35:09;9.48;;;1.58;;
75937;SDS011;64615;32.062;34.834;2024-03-22T11:37:36;7.93;;;1.92;;
75937;SDS011;64615;32.062;34.834;2024-03-22T11:40:05;8.57;;;1.88;;
75937;SDS011;64615;32.062;34.834;2024-03-22T11:42:35;12.90;;;1.92;;
75937;SDS011;64615;32.062;34.834;2024-03-22T11:45:02;16.80;;;2.00;;
75937;SDS011;64615;32.062;34.834;2024-03-22T11:47:29;8.43;;;1.77;;
75937;SDS011;64615;32.062;34.834;2024-03-22T11:49:55;10.55;;;2.10;;
75937;SDS011;64615;32.062;34.834;2024-03-22T11:52:24;8.23;;;1.83;;
75937;SDS011;64615;32.062;34.834;2024-03-22T11:54:51;9.50;;;2.10;;
75937;SDS011;64615;32.062;34.834;2024-03-22T11:57:18;10.02;;;2.20;;
75937;SDS011;64615;32.062;34.834;2024-03-22T11:59:44;12.60;;;2.10;;
75937;SDS011;64615;32.062;34.834;2024-03-22T12:02:09;11.57;;;2.35;;
75937;SDS011;64615;32.062;34.834;2024-03-22T12:04:35;8.57;;;1.98;;
75937;SDS011;64615;32.062;34.834;2024-03-22T12:07:01;5.88;;;1.58;;
75937;SDS011;64615;32.062;34.834;2024-03-22T12:09:26;11.40;;;2.05;;
75937;SDS011;64615;32.062;34.834;2024-03-22T12:11:54;8.70;;;1.80;;
75937;SDS011;64615;32.062;34.834;2024-03-22T12:16:46;10.80;;;1.88;;
75937;SDS011;64615;32.062;34.834;2024-03-22T12:19:11;7.38;;;1.70;;
75937;SDS011;64615;32.062;34.834;2024-03-22T12:21:37;6.88;;;1.80;;
75937;SDS011;64615;32.062;34.834;2024-03-22T12:24:03;9.45;;;2.00;;
75937;SDS011;64615;32.062;34.834;2024-03-22T12:26:28;8.80;;;2.05;;
75937;SDS011;64615;32.062;34.834;2024-03-22T12:28:57;7.35;;;1.95;;
75937;SDS011;64615;32.062;34.834;2024-03-22T12:31:23;8.38;;;2.25;;
75937;SDS011;64615;32.062;34.834;2024-03-22T12:33:48;8.63;;;1.73;;
75937;SDS011;64615;32.062;34.834;2024-03-22T12:36:14;7.22;;;2.03;;
75937;SDS011;64615;32.062;34.834;2024-03-22T12:38:39;6.13;;;1.58;;
75937;SDS011;64615;32.062;34.834;2024-03-22T12:41:05;11.90;;;1.90;;
75937;SDS011;64615;32.062;34.834;2024-03-22T12:43:32;7.15;;;1.50;;
75937;SDS011;64615;32.062;34.834;2024-03-22T12:45:57;9.25;;;1.88;;
75937;SDS011;64615;32.062;34.834;2024-03-22T12:48:23;6.22;;;1.67;;
75937;SDS011;64615;32.062;34.834;2024-03-22T12:50:49;10.95;;;2.42;;
75937;SDS011;64615;32.062;34.834;2024-03-22T12:53:14;9.52;;;1.80;;
75937;SDS011;64615;32.062;34.834;2024-03-22T12:55:40;8.18;;;2.05;;
75937;SDS011;64615;32.062;34.834;2024-03-22T12:58:05;8.40;;;1.83;;
75937;SDS011;64615;32.062;34.834;2024-03-22T13:00:31;9.95;;;1.90;;
75937;SDS011;64615;32.062;34.834;2024-03-22T13:02:58;7.40;;;1.90;;
75937;SDS011;64615;32.062;34.834;2024-03-22T13:05:25;9.40;;;2.20;;
75937;SDS011;64615;32.062;34.834;2024-03-22T13:07:51;13.18;;;2.38;;
75937;SDS011;64615;32.062;34.834;2024-03-22T13:10:17;11.57;;;1.83;;
75937;SDS011;64615;32.062;34.834;2024-03-22T13:12:43;10.02;;;2.00;;
75937;SDS011;64615;32.062;34.834;2024-03-22T13:15:09;8.35;;;1.70;;
75937;SDS011;64615;32.062;34.834;2024-03-22T13:17:34;10.98;;;1.80;;
75937;SDS011;64615;32.062;34.834;2024-03-22T13:20:00;8.88;;;1.90;;
75937;SDS011;64615;32.062;34.834;2024-03-22T13:22:26;8.48;;;1.95;;
75937;SDS011;64615;32.062;34.834;2024-03-22T13:24:51;11.70;;;2.60;;
75937;SDS011;64615;32.062;34.834;2024-03-22T13:27:17;7.93;;;2.17;;
75937;SDS011;64615;32.062;34.834;2024-03-22T13:29:43;8.45;;;1.83;;
75937;SDS011;64615;32.062;34.834;2024-03-22T13:32:08;10.65;;;2.40;;
75937;SDS011;64615;32.062;34.834;2024-03-22T13:34:34;20.23;;;2.53;;
75937;SDS011;64615;32.062;34.834;2024-03-22T13:37:01;18.98;;;2.65;;
75937;SDS011;64615;32.062;34.834;2024-03-22T13:39:27;18.88;;;2.30;;
75937;SDS011;64615;32.062;34.834;2024-03-22T13:41:54;19.10;;;2.60;;
75937;SDS011;64615;32.062;34.834;2024-03-22T13:44:21;14.57;;;2.45;;
75937;SDS011;64615;32.062;34.834;2024-03-22T13:46:47;10.32;;;2.38;;
75937;SDS011;64615;32.062;34.834;2024-03-22T13:49:16;10.02;;;2.17;;
75937;SDS011;64615;32.062;34.834;2024-03-22T13:51:43;12.85;;;2.00;;
75937;SDS011;64615;32.062;34.834;2024-03-22T13:54:09;21.55;;;2.47;;
75937;SDS011;64615;32.062;34.834;2024-03-22T13:56:35;10.32;;;2.20;;
75937;SDS011;64615;32.062;34.834;2024-03-22T13:59:03;9.55;;;2.22;;
75937;SDS011;64615;32.062;34.834;2024-03-22T14:01:31;12.70;;;2.40;;
75937;SDS011;64615;32.062;34.834;2024-03-22T14:03:59;8.73;;;2.22;;
75937;SDS011;64615;32.062;34.834;2024-03-22T14:06:25;14.02;;;2.40;;
75937;SDS011;64615;32.062;34.834;2024-03-22T14:08:50;12.43;;;2.38;;
75937;SDS011;64615;32.062;34.834;2024-03-22T14:11:19;16.25;;;2.65;;
75937;SDS011;64615;32.062;34.834;2024-03-22T14:13:45;14.95;;;2.55;;
75937;SDS011;64615;32.062;34.834;2024-03-22T14:16:11;15.25;;;2.42;;
75937;SDS011;64615;32.062;34.834;2024-03-22T14:18:36;11.70;;;2.20;;
75937;SDS011;64615;32.062;34.834;2024-03-22T14:21:02;11.77;;;2.45;;
75937;SDS011;64615;32.062;34.834;2024-03-22T14:23:28;11.50;;;2.33;;
75937;SDS011;64615;32.062;34.834;2024-03-22T14:25:57;10.98;;;2.30;;
75937;SDS011;64615;32.062;34.834;2024-03-22T14:28:22;10.48;;;2.25;;
75937;SDS011;64615;32.062;34.834;2024-03-22T14:30:48;14.88;;;2.28;;
75937;SDS011;64615;32.062;34.834;2024-03-22T14:33:14;9.00;;;2.15;;